createdAt,value
2023-03-24T00:04:42.848Z,10.15
2023-03-24T00:09:46.232Z,9.73
2023-03-24T00:14:48.445Z,11.43
2023-03-24T00:19:50.560Z,10.65
2023-03-24T00:29:54.641Z,10.48
2023-03-24T00:34:56.867Z,10.45
2023-03-24T00:39:59.781Z,10.30
2023-03-24T00:45:03.975Z,10.90
2023-03-24T00:50:09.392Z,10.45
2023-03-24T00:55:16.078Z,10.18
2023-03-24T01:00:30.036Z,10.45
2023-03-24T01:05:32.261Z,10.90
2023-03-24T01:10:50.321Z,10.30
2023-03-24T01:15:53.894Z,9.73
2023-03-24T01:20:56.101Z,10.60
2023-03-24T01:25:58.170Z,11.63
2023-03-24T01:36:02.382Z,10.40
2023-03-24T01:41:06.717Z,11.27
2023-03-24T01:46:23.003Z,12.20
2023-03-24T01:51:37.130Z,10.85
2023-03-24T01:56:42.926Z,11.65
2023-03-24T02:01:45.869Z,11.23
2023-03-24T02:07:38.350Z,10.68
2023-03-24T02:12:42.126Z,10.75
2023-03-24T02:18:00.011Z,11.10
2023-03-24T02:23:14.630Z,11.05
2023-03-24T02:28:28.957Z,11.38
2023-03-24T02:33:34.070Z,11.27
2023-03-24T02:38:36.116Z,11.23
2023-03-24T02:49:07.241Z,10.68
2023-03-24T02:54:37.082Z,10.45
2023-03-24T03:00:15.469Z,11.95
2023-03-24T03:05:58.877Z,11.48
2023-03-24T03:11:03.987Z,10.63
2023-03-24T03:16:13.993Z,11.57
2023-03-24T03:21:20.026Z,11.73
2023-03-24T03:26:24.258Z,10.32
2023-03-24T03:31:38.081Z,10.90
2023-03-24T03:37:11.269Z,11.38
2023-03-24T03:42:13.591Z,10.07
2023-03-24T03:47:16.470Z,12.20
2023-03-24T03:52:21.346Z,11.30
2023-03-24T03:57:25.716Z,14.27
2023-03-24T04:03:23.974Z,13.30
2023-03-24T04:08:37.536Z,14.45
2023-03-24T04:14:19.631Z,15.43
2023-03-24T04:20:00.545Z,15.63
2023-03-24T04:25:35.222Z,16.77
2023-03-24T04:30:50.526Z,16.33
2023-03-24T04:36:06.692Z,16.75
2023-03-24T04:41:19.814Z,15.73
2023-03-24T04:46:32.736Z,16.75
2023-03-24T04:51:44.279Z,18.15
2023-03-24T04:57:01.951Z,17.50
2023-03-24T05:02:09.438Z,15.68
2023-03-24T05:07:18.734Z,18.27
2023-03-24T05:12:24.242Z,17.92
2023-03-24T05:17:49.383Z,18.88
2023-03-24T05:22:52.281Z,18.38
2023-03-24T05:27:54.497Z,17.95
2023-03-24T05:33:00.273Z,19.73
2023-03-24T05:38:02.460Z,16.45
2023-03-24T05:43:04.784Z,18.58
2023-03-24T05:48:11.260Z,18.77
2023-03-24T05:53:36.764Z,20.02
2023-03-24T05:58:49.398Z,19.25
2023-03-24T06:03:51.941Z,19.73
2023-03-24T06:08:54.857Z,19.85
2023-03-24T06:14:00.604Z,17.55
2023-03-24T06:19:07.131Z,17.67
2023-03-24T06:24:30.134Z,17.77
2023-03-24T06:29:39.640Z,16.92
2023-03-24T06:34:41.901Z,17.50
2023-03-24T06:39:52.344Z,16.38
2023-03-24T06:44:58.253Z,15.63
2023-03-24T06:50:00.934Z,16.40
2023-03-24T06:55:05.756Z,14.90
2023-03-24T07:00:09.366Z,13.70
2023-03-24T07:05:23.121Z,12.13
2023-03-24T07:10:25.639Z,14.02
2023-03-24T07:15:27.952Z,11.40
2023-03-24T07:20:31.074Z,12.32
2023-03-24T07:25:46.938Z,11.95
2023-03-24T07:31:02.645Z,11.95
2023-03-24T07:36:07.661Z,11.55
2023-03-24T07:41:12.216Z,11.00
2023-03-24T07:46:18.684Z,10.85
2023-03-24T07:51:21.202Z,10.80
2023-03-24T07:56:44.037Z,10.02
2023-03-24T08:01:52.296Z,8.57
2023-03-24T08:07:09.038Z,8.23
2023-03-24T08:12:19.884Z,8.07
2023-03-24T08:17:22.871Z,8.25
2023-03-24T08:22:25.146Z,7.07
2023-03-24T08:27:27.241Z,8.15
2023-03-24T08:32:29.402Z,7.45
2023-03-24T08:37:31.749Z,8.15
2023-03-24T08:42:33.836Z,6.45
2023-03-24T08:52:38.105Z,6.35
2023-03-24T08:57:40.256Z,5.60
2023-03-24T09:02:51.933Z,7.22
2023-03-24T09:07:54.107Z,5.93
2023-03-24T09:17:58.122Z,6.13
2023-03-24T09:23:00.289Z,6.15
2023-03-24T09:28:02.661Z,6.88
2023-03-24T09:33:04.774Z,6.93
2023-03-24T09:38:07.217Z,6.07
2023-03-24T09:43:24.612Z,6.30
2023-03-24T09:48:39.670Z,6.18
2023-03-24T09:53:44.816Z,5.97
2023-03-24T09:58:54.725Z,5.00
2023-03-24T10:03:59.257Z,5.40
2023-03-24T10:09:10.574Z,5.53
2023-03-24T10:14:18.578Z,5.07
2023-03-24T10:19:29.598Z,5.13
2023-03-24T10:24:59.573Z,5.47
2023-03-24T10:30:12.243Z,5.85
2023-03-24T10:35:37.551Z,5.47
2023-03-24T10:40:41.523Z,5.10
2023-03-24T10:45:47.634Z,5.47
2023-03-24T10:50:50.771Z,4.75
2023-03-24T10:55:52.879Z,4.65
2023-03-24T11:00:57.065Z,4.60
2023-03-24T11:06:01.951Z,4.80
2023-03-24T11:11:20.735Z,4.10
2023-03-24T11:16:30.454Z,4.85
2023-03-24T11:21:36.467Z,4.00
2023-03-24T11:26:40.954Z,4.32
2023-03-24T11:31:50.528Z,3.38
2023-03-24T11:36:59.944Z,3.67
2023-03-24T11:42:03.722Z,3.40
2023-03-24T11:47:24.556Z,2.50
2023-03-24T11:52:35.328Z,4.13
2023-03-24T11:57:55.758Z,3.83
2023-03-24T12:03:16.368Z,3.72
2023-03-24T12:08:36.469Z,3.20
2023-03-24T12:13:43.607Z,3.13
2023-03-24T12:19:10.247Z,4.18
2023-03-24T12:24:18.379Z,2.47
2023-03-24T12:29:40.932Z,2.50
2023-03-24T12:34:56.324Z,2.40
2023-03-24T12:40:22.889Z,3.25
2023-03-24T12:45:26.455Z,3.20
2023-03-24T12:50:59.177Z,2.63
2023-03-24T12:56:10.093Z,2.55
2023-03-24T13:01:32.232Z,2.40
2023-03-24T13:12:01.822Z,2.03
2023-03-24T13:17:12.548Z,2.40
2023-03-24T13:22:20.798Z,2.42
2023-03-24T13:27:33.077Z,2.47
2023-03-24T13:32:38.764Z,2.60
2023-03-24T13:37:51.814Z,2.90
2023-03-24T13:42:55.447Z,2.55
2023-03-24T13:48:16.191Z,2.10
2023-03-24T13:53:18.449Z,1.77
2023-03-24T13:58:24.590Z,1.50
2023-03-24T14:03:40.081Z,1.15
2023-03-24T14:08:48.841Z,1.30
2023-03-24T14:13:53.253Z,1.67
2023-03-24T14:19:28.556Z,1.40
2023-03-24T14:24:33.082Z,1.02
2023-03-24T14:29:54.503Z,1.45
2023-03-24T14:34:59.655Z,1.30
2023-03-24T14:40:02.077Z,1.65
2023-03-24T14:45:26.498Z,1.67
2023-03-24T14:50:29.169Z,1.80
2023-03-24T14:55:31.603Z,1.48
2023-03-24T15:00:45.503Z,1.27
2023-03-24T15:05:51.565Z,1.80
2023-03-24T15:11:01.340Z,1.50
2023-03-24T15:16:17.917Z,1.27
2023-03-24T15:21:39.578Z,1.30
2023-03-24T15:26:41.657Z,0.80
2023-03-24T15:31:43.821Z,1.13
2023-03-24T15:36:48.052Z,0.70
2023-03-24T15:41:54.380Z,0.85
2023-03-24T15:46:58.873Z,0.93
2023-03-24T15:52:06.931Z,0.90
2023-03-24T15:57:27.578Z,0.90
2023-03-24T16:02:43.797Z,0.85
2023-03-24T16:07:57.215Z,3.15
2023-03-24T16:13:26.144Z,1.10
2023-03-24T16:18:34.293Z,1.30
2023-03-24T16:23:36.483Z,1.00
2023-03-24T16:28:38.597Z,0.88
2023-03-24T16:33:40.646Z,0.85
2023-03-24T16:43:45.559Z,0.77
2023-03-24T16:48:47.934Z,1.48
2023-03-24T16:53:50.440Z,1.30
2023-03-24T16:58:54.581Z,1.17
2023-03-24T17:03:59.242Z,1.00
2023-03-24T17:09:01.521Z,1.20
2023-03-24T17:14:05.862Z,1.23
2023-03-24T17:19:07.946Z,1.15
2023-03-24T17:24:10.980Z,0.90
2023-03-24T17:29:14.035Z,1.15
2023-03-24T17:34:21.663Z,1.20
2023-03-24T17:39:24.227Z,1.77
2023-03-24T17:44:26.354Z,1.00
2023-03-24T17:49:28.547Z,1.27
2023-03-24T17:54:30.668Z,1.40
2023-03-24T17:59:32.942Z,1.30
2023-03-24T18:04:35.085Z,1.73
2023-03-24T18:09:38.031Z,1.40
2023-03-24T18:14:40.607Z,1.65
2023-03-24T18:19:42.988Z,1.20
2023-03-24T18:24:45.134Z,1.75
2023-03-24T18:29:47.194Z,4.32
2023-03-24T18:34:49.250Z,1.65
2023-03-24T18:39:51.328Z,1.30
2023-03-24T18:44:53.464Z,1.40
2023-03-24T18:49:55.780Z,1.50
2023-03-24T18:54:57.871Z,1.48
2023-03-24T19:00:01.063Z,2.10
2023-03-24T19:05:05.333Z,1.95
2023-03-24T19:10:07.807Z,1.75
2023-03-24T19:15:10.249Z,2.28
2023-03-24T19:20:12.555Z,2.10
2023-03-24T19:25:17.748Z,2.22
2023-03-24T19:30:19.898Z,2.00
2023-03-24T19:35:22.263Z,2.00
2023-03-24T19:40:24.320Z,2.08
2023-03-24T19:50:28.437Z,2.75
2023-03-24T19:55:31.479Z,2.13
2023-03-24T20:00:34.974Z,2.28
2023-03-24T20:05:37.212Z,2.40
2023-03-24T20:10:40.256Z,3.08
2023-03-24T20:15:42.464Z,2.80
2023-03-24T20:20:44.519Z,3.20
2023-03-24T20:25:46.592Z,3.58
2023-03-24T20:30:49.127Z,3.58
2023-03-24T20:35:51.504Z,3.05
2023-03-24T20:41:05.603Z,3.63
2023-03-24T20:46:09.333Z,3.58
2023-03-24T20:51:11.907Z,3.42
2023-03-24T20:56:15.538Z,3.17
2023-03-24T21:01:24.079Z,3.35
2023-03-24T21:06:26.190Z,3.50
2023-03-24T21:11:30.861Z,3.60
2023-03-24T21:16:37.587Z,4.00
2023-03-24T21:21:39.875Z,3.58
2023-03-24T21:26:42.680Z,4.30
2023-03-24T21:31:44.844Z,3.83
2023-03-24T21:36:49.629Z,3.40
2023-03-24T21:41:52.413Z,4.05
2023-03-24T21:46:54.497Z,3.50
2023-03-24T21:51:57.304Z,3.75
2023-03-24T21:57:00.228Z,3.85
2023-03-24T22:02:02.780Z,3.83
2023-03-24T22:07:07.735Z,3.65
2023-03-24T22:12:10.905Z,3.45
2023-03-24T22:17:12.991Z,3.92
2023-03-24T22:22:15.214Z,3.70
2023-03-24T22:27:17.855Z,4.10
2023-03-24T22:32:19.993Z,3.17
2023-03-24T22:42:41.754Z,3.63
2023-03-24T22:47:44.837Z,3.35
2023-03-24T22:52:46.876Z,4.25
2023-03-24T23:02:50.967Z,3.97
2023-03-24T23:07:53.051Z,3.50
2023-03-24T23:12:55.329Z,3.15
2023-03-24T23:17:57.467Z,4.15
2023-03-24T23:23:00.621Z,3.38
2023-03-24T23:28:02.797Z,3.55
2023-03-24T23:33:05.318Z,2.70
2023-03-24T23:38:08.682Z,2.85
2023-03-24T23:43:11.369Z,2.78
2023-03-24T23:48:13.557Z,2.97
2023-03-24T23:53:15.662Z,2.22
2023-03-24T23:58:17.912Z,2.53
